sensor_id;sensor_type;location;lat;lon;timestamp;pressure;altitude;pressure_sealevel;temperature;humidity
829;BME280;396;52.558;13.188;2023-05-11T00:01:31;100866.41;;;14.25;98.32
829;BME280;396;52.558;13.188;2023-05-11T00:03:58;100861.91;;;14.12;97.30
829;BME280;396;52.558;13.188;2023-05-11T00:06:25;100863.53;;;14.04;95.34
829;BME280;396;52.558;13.188;2023-05-11T00:08:51;100864.13;;;13.93;94.65
829;BME280;396;52.558;13.188;2023-05-11T00:11:18;100859.28;;;13.81;95.14
829;BME280;396;52.558;13.188;2023-05-11T00:13:45;100860.56;;;13.75;94.70
829;BME280;396;52.558;13.188;2023-05-11T00:16:12;100860.53;;;13.66;95.20
829;BME280;396;52.558;13.188;2023-05-11T00:18:40;100858.56;;;13.58;96.89
829;BME280;396;52.558;13.188;2023-05-11T00:21:06;100855.38;;;13.56;98.41
829;BME280;396;52.558;13.188;2023-05-11T00:23:33;100857.44;;;13.50;98.89
829;BME280;396;52.558;13.188;2023-05-11T00:26:00;100859.66;;;13.48;99.04
829;BME280;396;52.558;13.188;2023-05-11T00:28:26;100856.44;;;13.46;99.51
829;BME280;396;52.558;13.188;2023-05-11T00:30:54;100865.41;;;13.47;99.69
829;BME280;396;52.558;13.188;2023-05-11T00:33:21;100857.06;;;13.43;99.91
829;BME280;396;52.558;13.188;2023-05-11T00:35:49;100858.00;;;13.38;100.00
829;BME280;396;52.558;13.188;2023-05-11T00:38:16;100852.06;;;13.36;100.00
829;BME280;396;52.558;13.188;2023-05-11T00:40:43;100854.31;;;13.34;100.00
829;BME280;396;52.558;13.188;2023-05-11T00:43:09;100853.00;;;13.32;100.00
829;BME280;396;52.558;13.188;2023-05-11T00:45:36;100860.81;;;13.25;100.00
829;BME280;396;52.558;13.188;2023-05-11T00:48:04;100860.41;;;13.18;100.00
829;BME280;396;52.558;13.188;2023-05-11T00:50:31;100860.59;;;13.21;100.00
829;BME280;396;52.558;13.188;2023-05-11T00:52:59;100855.16;;;13.21;100.00
829;BME280;396;52.558;13.188;2023-05-11T00:55:26;100853.25;;;13.22;99.81
829;BME280;396;52.558;13.188;2023-05-11T00:57:53;100853.56;;;13.20;99.42
829;BME280;396;52.558;13.188;2023-05-11T01:00:19;100851.97;;;12.97;100.00
829;BME280;396;52.558;13.188;2023-05-11T01:02:46;100852.47;;;12.99;99.91
829;BME280;396;52.558;13.188;2023-05-11T01:05:14;100849.56;;;12.95;100.00
829;BME280;396;52.558;13.188;2023-05-11T01:07:48;100838.28;;;13.02;99.55
829;BME280;396;52.558;13.188;2023-05-11T01:10:23;100841.16;;;13.05;98.99
829;BME280;396;52.558;13.188;2023-05-11T01:12:57;100849.63;;;13.04;98.63
829;BME280;396;52.558;13.188;2023-05-11T01:15:28;100842.53;;;12.94;99.09
829;BME280;396;52.558;13.188;2023-05-11T01:18:02;100850.97;;;12.84;99.36
829;BME280;396;52.558;13.188;2023-05-11T01:20:32;100843.47;;;12.67;100.00
829;BME280;396;52.558;13.188;2023-05-11T01:26:38;100854.81;;;12.69;97.90
829;BME280;396;52.558;13.188;2023-05-11T01:29:39;100844.88;;;12.65;96.41
829;BME280;396;52.558;13.188;2023-05-11T01:32:14;100848.66;;;12.55;95.75
829;BME280;396;52.558;13.188;2023-05-11T01:34:43;100852.09;;;12.47;95.62
829;BME280;396;52.558;13.188;2023-05-11T01:37:13;100854.63;;;12.43;95.17
829;BME280;396;52.558;13.188;2023-05-11T01:39:46;100858.44;;;12.42;95.87
829;BME280;396;52.558;13.188;2023-05-11T01:42:14;100853.81;;;12.43;96.37
829;BME280;396;52.558;13.188;2023-05-11T01:44:44;100865.00;;;12.41;97.23
829;BME280;396;52.558;13.188;2023-05-11T01:47:15;100859.69;;;12.36;98.67
829;BME280;396;52.558;13.188;2023-05-11T01:49:43;100862.31;;;12.27;99.62
829;BME280;396;52.558;13.188;2023-05-11T01:52:12;100861.69;;;12.30;99.37
829;BME280;396;52.558;13.188;2023-05-11T01:54:41;100858.81;;;12.27;99.71
829;BME280;396;52.558;13.188;2023-05-11T01:57:10;100874.09;;;12.23;99.73
829;BME280;396;52.558;13.188;2023-05-11T01:59:39;100871.41;;;12.09;100.00
829;BME280;396;52.558;13.188;2023-05-11T02:02:07;100872.13;;;12.01;100.00
829;BME280;396;52.558;13.188;2023-05-11T02:04:36;100870.88;;;12.07;100.00
829;BME280;396;52.558;13.188;2023-05-11T02:07:06;100876.91;;;12.04;100.00
829;BME280;396;52.558;13.188;2023-05-11T02:09:33;100875.03;;;12.04;100.00
829;BME280;396;52.558;13.188;2023-05-11T02:12:01;100880.25;;;12.15;99.31
829;BME280;396;52.558;13.188;2023-05-11T02:14:31;100878.94;;;12.12;99.44
829;BME280;396;52.558;13.188;2023-05-11T02:17:00;100887.97;;;12.07;99.44
829;BME280;396;52.558;13.188;2023-05-11T02:19:28;100891.59;;;12.03;99.54
829;BME280;396;52.558;13.188;2023-05-11T02:21:57;100887.19;;;12.07;99.00
829;BME280;396;52.558;13.188;2023-05-11T02:24:26;100890.41;;;12.09;98.43
829;BME280;396;52.558;13.188;2023-05-11T02:26:53;100889.31;;;12.10;98.24
829;BME280;396;52.558;13.188;2023-05-11T02:29:20;100884.69;;;11.97;98.50
829;BME280;396;52.558;13.188;2023-05-11T02:31:48;100887.31;;;11.88;99.03
829;BME280;396;52.558;13.188;2023-05-11T02:34:26;100888.81;;;11.94;98.61
829;BME280;396;52.558;13.188;2023-05-11T02:36:58;100893.53;;;11.89;99.20
829;BME280;396;52.558;13.188;2023-05-11T02:39:31;100881.66;;;11.84;99.10
829;BME280;396;52.558;13.188;2023-05-11T02:42:00;100890.47;;;11.76;99.88
829;BME280;396;52.558;13.188;2023-05-11T02:44:31;100890.69;;;11.66;100.00
829;BME280;396;52.558;13.188;2023-05-11T02:47:01;100895.78;;;11.54;100.00
829;BME280;396;52.558;13.188;2023-05-11T02:49:30;100890.38;;;11.54;100.00
829;BME280;396;52.558;13.188;2023-05-11T02:52:00;100879.94;;;11.61;99.83
829;BME280;396;52.558;13.188;2023-05-11T02:54:29;100887.75;;;11.62;98.11
829;BME280;396;52.558;13.188;2023-05-11T02:56:57;100885.47;;;11.56;96.79
829;BME280;396;52.558;13.188;2023-05-11T02:59:24;100889.34;;;11.50;96.15
829;BME280;396;52.558;13.188;2023-05-11T03:01:51;100888.84;;;11.48;96.26
829;BME280;396;52.558;13.188;2023-05-11T03:04:18;100890.34;;;11.40;96.07
829;BME280;396;52.558;13.188;2023-05-11T03:06:45;100890.75;;;11.33;96.25
829;BME280;396;52.558;13.188;2023-05-11T03:09:13;100888.63;;;11.30;98.08
829;BME280;396;52.558;13.188;2023-05-11T03:11:40;100889.31;;;11.22;99.42
829;BME280;396;52.558;13.188;2023-05-11T03:14:07;100890.91;;;11.23;99.34
829;BME280;396;52.558;13.188;2023-05-11T03:16:35;100886.59;;;11.22;100.00
829;BME280;396;52.558;13.188;2023-05-11T03:19:05;100889.81;;;11.24;100.00
829;BME280;396;52.558;13.188;2023-05-11T03:21:33;100890.31;;;11.26;99.66
829;BME280;396;52.558;13.188;2023-05-11T03:24:01;100888.84;;;11.34;99.06
829;BME280;396;52.558;13.188;2023-05-11T03:26:29;100894.63;;;11.27;99.34
829;BME280;396;52.558;13.188;2023-05-11T03:28:59;100893.34;;;11.25;99.78
829;BME280;396;52.558;13.188;2023-05-11T03:31:26;100894.63;;;11.27;99.78
829;BME280;396;52.558;13.188;2023-05-11T03:33:53;100888.09;;;11.28;100.00
829;BME280;396;52.558;13.188;2023-05-11T03:36:20;100885.91;;;11.30;99.96
829;BME280;396;52.558;13.188;2023-05-11T03:38:49;100889.84;;;11.38;98.53
829;BME280;396;52.558;13.188;2023-05-11T03:41:21;100886.53;;;11.41;98.40
829;BME280;396;52.558;13.188;2023-05-11T03:43:51;100886.31;;;11.37;98.89
829;BME280;396;52.558;13.188;2023-05-11T03:46:21;100896.84;;;11.25;99.42
829;BME280;396;52.558;13.188;2023-05-11T03:48:49;100893.13;;;11.21;100.00
829;BME280;396;52.558;13.188;2023-05-11T03:51:16;100892.81;;;11.23;99.71
829;BME280;396;52.558;13.188;2023-05-11T03:53:43;100894.16;;;11.25;99.68
829;BME280;396;52.558;13.188;2023-05-11T03:56:10;100889.41;;;11.17;100.00
829;BME280;396;52.558;13.188;2023-05-11T03:58:38;100894.81;;;11.17;100.00
829;BME280;396;52.558;13.188;2023-05-11T04:01:07;100880.06;;;11.23;100.00
829;BME280;396;52.558;13.188;2023-05-11T04:03:34;100883.69;;;11.32;100.00
829;BME280;396;52.558;13.188;2023-05-11T04:06:01;100883.09;;;11.35;100.00
829;BME280;396;52.558;13.188;2023-05-11T04:08:27;100888.75;;;11.39;100.00
829;BME280;396;52.558;13.188;2023-05-11T04:10:54;100891.56;;;11.48;100.00
829;BME280;396;52.558;13.188;2023-05-11T04:13:20;100889.56;;;11.53;100.00
829;BME280;396;52.558;13.188;2023-05-11T04:15:47;100891.91;;;11.60;100.00
829;BME280;396;52.558;13.188;2023-05-11T04:18:15;100886.75;;;11.72;100.00
829;BME280;396;52.558;13.188;2023-05-11T04:20:41;100889.19;;;11.74;100.00
829;BME280;396;52.558;13.188;2023-05-11T04:23:08;100894.19;;;11.80;100.00
829;BME280;396;52.558;13.188;2023-05-11T04:25:35;100895.75;;;11.86;100.00
829;BME280;396;52.558;13.188;2023-05-11T04:28:01;100899.16;;;11.92;100.00
829;BME280;396;52.558;13.188;2023-05-11T04:30:28;100903.91;;;12.00;100.00
829;BME280;396;52.558;13.188;2023-05-11T04:32:54;100897.44;;;12.10;100.00
829;BME280;396;52.558;13.188;2023-05-11T04:35:22;100907.28;;;12.20;100.00
829;BME280;396;52.558;13.188;2023-05-11T04:37:50;100899.72;;;12.30;100.00
829;BME280;396;52.558;13.188;2023-05-11T04:40:16;100901.31;;;12.45;100.00
829;BME280;396;52.558;13.188;2023-05-11T04:42:43;100900.75;;;12.57;100.00
829;BME280;396;52.558;13.188;2023-05-11T04:45:10;100913.22;;;12.72;100.00
829;BME280;396;52.558;13.188;2023-05-11T04:47:37;100908.97;;;12.79;100.00
829;BME280;396;52.558;13.188;2023-05-11T04:50:04;100905.69;;;12.91;100.00
829;BME280;396;52.558;13.188;2023-05-11T04:52:32;100920.13;;;13.00;100.00
829;BME280;396;52.558;13.188;2023-05-11T04:54:59;100909.31;;;13.09;100.00
829;BME280;396;52.558;13.188;2023-05-11T04:57:25;100914.63;;;13.14;100.00
829;BME280;396;52.558;13.188;2023-05-11T04:59:52;100923.88;;;13.27;100.00
829;BME280;396;52.558;13.188;2023-05-11T05:02:19;100919.78;;;13.38;100.00
829;BME280;396;52.558;13.188;2023-05-11T05:04:45;100928.47;;;13.49;99.91
829;BME280;396;52.558;13.188;2023-05-11T05:07:12;100925.81;;;13.57;99.07
829;BME280;396;52.558;13.188;2023-05-11T05:09:40;100924.72;;;13.67;98.43
829;BME280;396;52.558;13.188;2023-05-11T05:12:06;100922.56;;;13.78;96.98
829;BME280;396;52.558;13.188;2023-05-11T05:14:33;100923.88;;;13.89;96.06
829;BME280;396;52.558;13.188;2023-05-11T05:16:59;100931.78;;;13.99;95.28
829;BME280;396;52.558;13.188;2023-05-11T05:19:26;100932.59;;;14.08;94.21
829;BME280;396;52.558;13.188;2023-05-11T05:21:53;100936.31;;;14.21;92.99
829;BME280;396;52.558;13.188;2023-05-11T05:24:19;100930.06;;;14.29;91.06
829;BME280;396;52.558;13.188;2023-05-11T05:26:47;100933.47;;;14.44;90.00
829;BME280;396;52.558;13.188;2023-05-11T05:29:14;100924.53;;;14.52;88.86
829;BME280;396;52.558;13.188;2023-05-11T05:31:40;100932.41;;;14.62;88.00
829;BME280;396;52.558;13.188;2023-05-11T05:34:07;100930.97;;;14.73;87.38
829;BME280;396;52.558;13.188;2023-05-11T05:36:33;100932.09;;;14.81;86.33
829;BME280;396;52.558;13.188;2023-05-11T05:39:00;100942.66;;;14.91;85.40
829;BME280;396;52.558;13.188;2023-05-11T05:41:28;100938.69;;;14.97;83.79
829;BME280;396;52.558;13.188;2023-05-11T05:43:56;100939.94;;;15.08;83.08
829;BME280;396;52.558;13.188;2023-05-11T05:46:22;100942.66;;;15.17;82.34
829;BME280;396;52.558;13.188;2023-05-11T05:48:49;100937.19;;;15.26;81.55
829;BME280;396;52.558;13.188;2023-05-11T05:51:15;100940.69;;;15.35;80.64
829;BME280;396;52.558;13.188;2023-05-11T05:53:42;100950.16;;;15.46;79.51
829;BME280;396;52.558;13.188;2023-05-11T05:56:09;100957.84;;;15.53;78.92
829;BME280;396;52.558;13.188;2023-05-11T05:58:35;100956.22;;;15.60;79.25
829;BME280;396;52.558;13.188;2023-05-11T06:01:03;100958.97;;;15.69;79.11
829;BME280;396;52.558;13.188;2023-05-11T06:03:30;100964.72;;;15.76;78.80
829;BME280;396;52.558;13.188;2023-05-11T06:05:57;100964.81;;;15.88;78.03
829;BME280;396;52.558;13.188;2023-05-11T06:08:23;100966.25;;;15.95;77.65
829;BME280;396;52.558;13.188;2023-05-11T06:10:50;100970.06;;;16.02;76.56
829;BME280;396;52.558;13.188;2023-05-11T06:13:16;100969.91;;;16.07;76.65
829;BME280;396;52.558;13.188;2023-05-11T06:15:43;100961.78;;;16.20;76.74
829;BME280;396;52.558;13.188;2023-05-11T06:18:11;100967.38;;;16.32;75.51
829;BME280;396;52.558;13.188;2023-05-11T06:20:37;100967.66;;;16.39;74.75
829;BME280;396;52.558;13.188;2023-05-11T06:23:04;100966.31;;;16.45;73.53
829;BME280;396;52.558;13.188;2023-05-11T06:25:32;100973.31;;;16.55;72.45
829;BME280;396;52.558;13.188;2023-05-11T06:27:59;100972.47;;;16.63;71.89
829;BME280;396;52.558;13.188;2023-05-11T06:30:25;100974.22;;;16.68;72.28
829;BME280;396;52.558;13.188;2023-05-11T06:32:52;100977.56;;;16.73;72.60
829;BME280;396;52.558;13.188;2023-05-11T06:35:20;100976.41;;;16.83;71.27
829;BME280;396;52.558;13.188;2023-05-11T06:37:47;100976.34;;;16.92;71.00
829;BME280;396;52.558;13.188;2023-05-11T06:40:14;100982.25;;;16.94;70.30
829;BME280;396;52.558;13.188;2023-05-11T06:42:41;100978.66;;;17.02;69.14
829;BME280;396;52.558;13.188;2023-05-11T06:45:08;100978.44;;;17.07;69.02
829;BME280;396;52.558;13.188;2023-05-11T06:47:35;100970.81;;;17.12;70.28
829;BME280;396;52.558;13.188;2023-05-11T06:50:02;100983.19;;;17.19;68.38
829;BME280;396;52.558;13.188;2023-05-11T06:52:30;100977.84;;;17.22;68.14
829;BME280;396;52.558;13.188;2023-05-11T06:54:57;100978.09;;;17.29;67.66
829;BME280;396;52.558;13.188;2023-05-11T06:57:23;100970.59;;;17.38;66.20
829;BME280;396;52.558;13.188;2023-05-11T06:59:50;100982.50;;;17.55;63.12
829;BME280;396;52.558;13.188;2023-05-11T07:02:16;100976.47;;;17.61;62.41
829;BME280;396;52.558;13.188;2023-05-11T07:04:43;100978.88;;;17.63;64.12
829;BME280;396;52.558;13.188;2023-05-11T07:07:09;100973.31;;;17.72;63.75
829;BME280;396;52.558;13.188;2023-05-11T07:09:38;100977.94;;;17.80;63.00
829;BME280;396;52.558;13.188;2023-05-11T07:12:05;100982.38;;;17.84;61.02
829;BME280;396;52.558;13.188;2023-05-11T07:14:31;100986.94;;;17.80;62.23
829;BME280;396;52.558;13.188;2023-05-11T07:16:58;100983.19;;;17.85;60.55
829;BME280;396;52.558;13.188;2023-05-11T07:19:24;100977.13;;;17.92;60.96
829;BME280;396;52.558;13.188;2023-05-11T07:21:51;100975.78;;;17.98;60.35
829;BME280;396;52.558;13.188;2023-05-11T07:24:17;100978.75;;;18.05;61.11
829;BME280;396;52.558;13.188;2023-05-11T07:26:45;100987.88;;;18.09;59.72
829;BME280;396;52.558;13.188;2023-05-11T07:29:13;100978.16;;;18.24;58.72
829;BME280;396;52.558;13.188;2023-05-11T07:31:40;100984.44;;;18.36;57.89
829;BME280;396;52.558;13.188;2023-05-11T07:34:07;100982.84;;;18.48;57.88
829;BME280;396;52.558;13.188;2023-05-11T07:36:34;100976.88;;;18.58;57.58
829;BME280;396;52.558;13.188;2023-05-11T07:39:00;100984.09;;;18.62;58.58
829;BME280;396;52.558;13.188;2023-05-11T07:41:27;100986.72;;;18.71;59.05
829;BME280;396;52.558;13.188;2023-05-11T07:43:55;100983.84;;;18.80;57.81
829;BME280;396;52.558;13.188;2023-05-11T07:46:22;100981.91;;;18.80;58.80
829;BME280;396;52.558;13.188;2023-05-11T07:48:48;100977.88;;;18.90;55.48
829;BME280;396;52.558;13.188;2023-05-11T07:51:15;100976.03;;;18.94;56.07
829;BME280;396;52.558;13.188;2023-05-11T07:53:41;100971.78;;;18.97;57.35
829;BME280;396;52.558;13.188;2023-05-11T07:56:08;100977.59;;;19.07;57.39
829;BME280;396;52.558;13.188;2023-05-11T07:58:35;100975.41;;;19.13;57.25
829;BME280;396;52.558;13.188;2023-05-11T08:01:03;100979.38;;;19.15;55.99
829;BME280;396;52.558;13.188;2023-05-11T08:03:30;100974.91;;;19.23;56.52
829;BME280;396;52.558;13.188;2023-05-11T08:05:57;100974.28;;;19.30;57.10
829;BME280;396;52.558;13.188;2023-05-11T08:08:23;100972.09;;;19.35;57.17
829;BME280;396;52.558;13.188;2023-05-11T08:10:50;100975.59;;;19.48;56.56
829;BME280;396;52.558;13.188;2023-05-11T08:13:17;100974.97;;;19.55;54.02
829;BME280;396;52.558;13.188;2023-05-11T08:15:43;100974.03;;;19.63;54.73
829;BME280;396;52.558;13.188;2023-05-11T08:18:11;100975.09;;;19.74;53.55
829;BME280;396;52.558;13.188;2023-05-11T08:20:38;100979.53;;;19.79;53.20
829;BME280;396;52.558;13.188;2023-05-11T08:23:06;100981.94;;;19.80;53.54
829;BME280;396;52.558;13.188;2023-05-11T08:25:33;100977.06;;;19.89;53.52
829;BME280;396;52.558;13.188;2023-05-11T08:28:00;100974.94;;;19.99;52.61
829;BME280;396;52.558;13.188;2023-05-11T08:30:26;100973.78;;;20.00;53.32
829;BME280;396;52.558;13.188;2023-05-11T08:32:53;100971.03;;;20.00;53.10
829;BME280;396;52.558;13.188;2023-05-11T08:35:21;100973.97;;;20.07;52.76
829;BME280;396;52.558;13.188;2023-05-11T08:37:48;100983.34;;;20.22;52.05
829;BME280;396;52.558;13.188;2023-05-11T08:40:16;100981.13;;;20.27;52.12
829;BME280;396;52.558;13.188;2023-05-11T08:42:45;100975.97;;;20.41;50.44
829;BME280;396;52.558;13.188;2023-05-11T08:45:13;100979.50;;;20.58;50.79
829;BME280;396;52.558;13.188;2023-05-11T08:47:40;100972.13;;;20.62;50.25
829;BME280;396;52.558;13.188;2023-05-11T08:50:07;100969.81;;;20.64;52.12
829;BME280;396;52.558;13.188;2023-05-11T08:52:36;100977.28;;;20.63;50.99
829;BME280;396;52.558;13.188;2023-05-11T08:55:03;100976.00;;;20.77;51.27
829;BME280;396;52.558;13.188;2023-05-11T08:57:30;100977.38;;;20.86;49.80
829;BME280;396;52.558;13.188;2023-05-11T08:59:58;100973.63;;;20.95;51.13
829;BME280;396;52.558;13.188;2023-05-11T09:02:27;100976.78;;;20.97;50.41
829;BME280;396;52.558;13.188;2023-05-11T09:04:54;100966.72;;;21.04;50.20
829;BME280;396;52.558;13.188;2023-05-11T09:07:23;100973.09;;;21.08;51.35
829;BME280;396;52.558;13.188;2023-05-11T09:09:53;100969.84;;;21.22;50.70
829;BME280;396;52.558;13.188;2023-05-11T09:12:20;100967.38;;;21.36;50.68
829;BME280;396;52.558;13.188;2023-05-11T09:14:50;100970.63;;;21.42;48.87
829;BME280;396;52.558;13.188;2023-05-11T09:17:17;100966.78;;;21.47;49.39
829;BME280;396;52.558;13.188;2023-05-11T09:19:56;100978.34;;;21.56;49.22
829;BME280;396;52.558;13.188;2023-05-11T09:22:24;100964.09;;;21.73;47.42
829;BME280;396;52.558;13.188;2023-05-11T09:24:52;100958.66;;;21.77;48.18
829;BME280;396;52.558;13.188;2023-05-11T09:27:23;100969.88;;;21.87;48.51
829;BME280;396;52.558;13.188;2023-05-11T09:29:51;100974.22;;;21.88;46.52
829;BME280;396;52.558;13.188;2023-05-11T09:32:18;100975.81;;;21.89;45.76
829;BME280;396;52.558;13.188;2023-05-11T09:34:45;100973.03;;;21.89;46.91
829;BME280;396;52.558;13.188;2023-05-11T09:37:15;100973.03;;;21.89;46.63
829;BME280;396;52.558;13.188;2023-05-11T09:39:42;100967.66;;;21.97;44.92
829;BME280;396;52.558;13.188;2023-05-11T09:42:14;100964.84;;;22.16;44.02
829;BME280;396;52.558;13.188;2023-05-11T09:44:41;100969.31;;;22.24;41.72
829;BME280;396;52.558;13.188;2023-05-11T09:47:12;100977.53;;;22.21;42.91
829;BME280;396;52.558;13.188;2023-05-11T09:49:40;100966.53;;;22.24;42.13
829;BME280;396;52.558;13.188;2023-05-11T09:52:08;100960.28;;;22.27;43.85
829;BME280;396;52.558;13.188;2023-05-11T09:54:40;100956.34;;;22.28;44.02
829;BME280;396;52.558;13.188;2023-05-11T09:57:22;100960.56;;;22.45;42.34
829;BME280;396;52.558;13.188;2023-05-11T09:59:50;100966.41;;;22.44;42.26
829;BME280;396;52.558;13.188;2023-05-11T10:02:20;100967.72;;;22.50;42.91
829;BME280;396;52.558;13.188;2023-05-11T10:04:47;100975.00;;;22.65;43.37
829;BME280;396;52.558;13.188;2023-05-11T10:07:24;100976.03;;;22.83;43.31
829;BME280;396;52.558;13.188;2023-05-11T10:09:52;100962.41;;;22.94;41.13
829;BME280;396;52.558;13.188;2023-05-11T10:12:21;100970.75;;;22.98;41.21
829;BME280;396;52.558;13.188;2023-05-11T10:14:54;100963.59;;;22.97;41.76
829;BME280;396;52.558;13.188;2023-05-11T10:17:21;100961.34;;;23.06;41.69
829;BME280;396;52.558;13.188;2023-05-11T10:19:48;100957.25;;;22.92;42.17
829;BME280;396;52.558;13.188;2023-05-11T10:22:15;100958.97;;;23.04;41.90
829;BME280;396;52.558;13.188;2023-05-11T10:24:42;100964.31;;;23.20;42.29
829;BME280;396;52.558;13.188;2023-05-11T10:27:10;100961.38;;;23.43;41.76
829;BME280;396;52.558;13.188;2023-05-11T10:29:36;100952.00;;;23.51;40.95
829;BME280;396;52.558;13.188;2023-05-11T10:32:06;100956.56;;;23.74;42.23
829;BME280;396;52.558;13.188;2023-05-11T10:34:33;100947.94;;;23.82;40.76
829;BME280;396;52.558;13.188;2023-05-11T10:37:00;100945.63;;;23.88;40.97
829;BME280;396;52.558;13.188;2023-05-11T10:39:27;100954.81;;;24.03;40.59
829;BME280;396;52.558;13.188;2023-05-11T10:42:04;100949.63;;;23.98;39.58
829;BME280;396;52.558;13.188;2023-05-11T10:47:52;100948.59;;;24.13;39.75
829;BME280;396;52.558;13.188;2023-05-11T10:50:32;100944.28;;;24.23;38.96
829;BME280;396;52.558;13.188;2023-05-11T10:53:28;100953.94;;;24.47;37.63
829;BME280;396;52.558;13.188;2023-05-11T10:56:16;100952.09;;;24.69;38.40
829;BME280;396;52.558;13.188;2023-05-11T10:59:26;100950.16;;;24.83;37.37
829;BME280;396;52.558;13.188;2023-05-11T11:01:55;100954.56;;;24.84;36.54
829;BME280;396;52.558;13.188;2023-05-11T11:04:40;100943.47;;;24.88;37.86
829;BME280;396;52.558;13.188;2023-05-11T11:07:08;100949.41;;;24.86;37.26
829;BME280;396;52.558;13.188;2023-05-11T11:09:49;100957.41;;;25.06;36.36
829;BME280;396;52.558;13.188;2023-05-11T11:12:17;100958.63;;;25.12;36.58
829;BME280;396;52.558;13.188;2023-05-11T11:14:54;100955.69;;;24.76;35.83
829;BME280;396;52.558;13.188;2023-05-11T11:17:22;100958.06;;;24.74;37.01
829;BME280;396;52.558;13.188;2023-05-11T11:19:52;100955.88;;;25.15;36.25
829;BME280;396;52.558;13.188;2023-05-11T11:22:41;100949.66;;;25.94;35.59
829;BME280;396;52.558;13.188;2023-05-11T11:25:09;100945.16;;;26.71;36.01
829;BME280;396;52.558;13.188;2023-05-11T11:27:54;100946.81;;;26.51;34.53
829;BME280;396;52.558;13.188;2023-05-11T11:30:22;100951.25;;;26.02;35.81
829;BME280;396;52.558;13.188;2023-05-11T11:32:50;100945.66;;;25.59;36.67
829;BME280;396;52.558;13.188;2023-05-11T11:35:46;100955.13;;;25.36;36.81
829;BME280;396;52.558;13.188;2023-05-11T11:38:15;100945.50;;;25.02;37.13
829;BME280;396;52.558;13.188;2023-05-11T11:40:44;100941.22;;;25.15;38.38
829;BME280;396;52.558;13.188;2023-05-11T11:43:12;100944.06;;;25.58;37.16
829;BME280;396;52.558;13.188;2023-05-11T11:45:40;100944.47;;;25.53;36.43
829;BME280;396;52.558;13.188;2023-05-11T11:48:20;100952.00;;;25.52;37.15
829;BME280;396;52.558;13.188;2023-05-11T11:50:49;100959.56;;;25.87;37.65
829;BME280;396;52.558;13.188;2023-05-11T11:56:39;100961.72;;;27.73;33.14
829;BME280;396;52.558;13.188;2023-05-11T11:59:05;100958.84;;;28.29;32.96
829;BME280;396;52.558;13.188;2023-05-11T12:01:36;100955.34;;;28.59;31.73
829;BME280;396;52.558;13.188;2023-05-11T12:04:32;100953.00;;;29.22;31.53
829;BME280;396;52.558;13.188;2023-05-11T12:07:06;100959.59;;;29.35;30.41
829;BME280;396;52.558;13.188;2023-05-11T12:09:34;100965.63;;;28.69;30.66
829;BME280;396;52.558;13.188;2023-05-11T12:12:02;100955.34;;;28.21;31.86
829;BME280;396;52.558;13.188;2023-05-11T12:14:29;100947.97;;;28.79;31.75
829;BME280;396;52.558;13.188;2023-05-11T12:17:03;100957.72;;;29.52;30.74
829;BME280;396;52.558;13.188;2023-05-11T12:19:32;100965.50;;;29.68;30.41
829;BME280;396;52.558;13.188;2023-05-11T12:21:59;100965.19;;;29.62;29.19
829;BME280;396;52.558;13.188;2023-05-11T12:24:27;100969.47;;;29.94;30.03
829;BME280;396;52.558;13.188;2023-05-11T12:26:55;100971.78;;;30.23;30.09
829;BME280;396;52.558;13.188;2023-05-11T12:29:22;100970.88;;;30.49;28.57
829;BME280;396;52.558;13.188;2023-05-11T12:31:49;100974.38;;;30.53;29.03
829;BME280;396;52.558;13.188;2023-05-11T12:34:16;100976.22;;;29.70;28.55
829;BME280;396;52.558;13.188;2023-05-11T12:36:45;100954.78;;;28.75;30.20
829;BME280;396;52.558;13.188;2023-05-11T12:39:16;100961.69;;;27.80;30.18
829;BME280;396;52.558;13.188;2023-05-11T12:41:45;100971.66;;;27.01;31.72
829;BME280;396;52.558;13.188;2023-05-11T12:44:13;100958.34;;;26.21;33.04
829;BME280;396;52.558;13.188;2023-05-11T12:46:40;100964.75;;;25.85;33.77
829;BME280;396;52.558;13.188;2023-05-11T12:49:08;100966.69;;;25.63;34.66
829;BME280;396;52.558;13.188;2023-05-11T12:51:48;100962.25;;;25.30;35.56
829;BME280;396;52.558;13.188;2023-05-11T12:54:30;100962.50;;;24.89;34.62
829;BME280;396;52.558;13.188;2023-05-11T12:56:59;100963.25;;;24.79;35.42
829;BME280;396;52.558;13.188;2023-05-11T12:59:32;100957.97;;;24.56;35.26
829;BME280;396;52.558;13.188;2023-05-11T13:02:08;100960.28;;;24.47;35.69
829;BME280;396;52.558;13.188;2023-05-11T13:04:35;100964.59;;;24.37;35.66
829;BME280;396;52.558;13.188;2023-05-11T13:07:02;100957.38;;;24.29;35.37
829;BME280;396;52.558;13.188;2023-05-11T13:09:29;100956.97;;;24.27;35.49
829;BME280;396;52.558;13.188;2023-05-11T13:12:21;100955.53;;;24.44;35.12
829;BME280;396;52.558;13.188;2023-05-11T13:14:49;100965.53;;;24.63;34.82
829;BME280;396;52.558;13.188;2023-05-11T13:17:28;100953.34;;;24.82;34.21
829;BME280;396;52.558;13.188;2023-05-11T13:19:56;100955.09;;;25.15;34.04
829;BME280;396;52.558;13.188;2023-05-11T13:22:22;100954.03;;;25.87;33.31
829;BME280;396;52.558;13.188;2023-05-11T13:25:00;100957.66;;;27.26;32.95
829;BME280;396;52.558;13.188;2023-05-11T13:27:28;100954.16;;;28.19;31.89
829;BME280;396;52.558;13.188;2023-05-11T13:29:54;100961.63;;;28.70;30.42
829;BME280;396;52.558;13.188;2023-05-11T13:32:21;100970.44;;;28.65;30.10
829;BME280;396;52.558;13.188;2023-05-11T13:34:47;100966.22;;;28.50;30.84
829;BME280;396;52.558;13.188;2023-05-11T13:37:14;100964.72;;;29.10;29.01
829;BME280;396;52.558;13.188;2023-05-11T13:39:41;100961.31;;;30.03;27.75